createdAt,value
2024-05-09T00:00:15.505Z,96126.91
2024-05-09T00:01:26.517Z,96116.94
2024-05-09T00:02:29.177Z,96125.97
2024-05-09T00:03:34.622Z,96125.25
2024-05-09T00:04:37.479Z,96119.97
2024-05-09T00:05:44.323Z,96122.47
2024-05-09T00:06:47.167Z,96125.88
2024-05-09T00:07:52.422Z,96124.66
2024-05-09T00:08:55.092Z,96121.72
2024-05-09T00:10:00.316Z,96124.13
2024-05-09T00:11:03.077Z,96121.19
2024-05-09T00:12:09.039Z,96122.13
2024-05-09T00:13:11.779Z,96114.09
2024-05-09T00:14:17.339Z,96112.16
2024-05-09T00:15:20.007Z,96119.81
2024-05-09T00:16:27.852Z,96119.31
2024-05-09T00:17:30.681Z,96120.84
2024-05-09T00:18:36.141Z,96114.22
2024-05-09T00:19:38.959Z,96115.88
2024-05-09T00:20:44.386Z,96120.28
2024-05-09T00:21:47.016Z,96116.50
2024-05-09T00:22:52.732Z,96116.78
2024-05-09T00:23:55.634Z,96114.78
2024-05-09T00:25:00.886Z,96110.88
2024-05-09T00:26:03.586Z,96115.69
2024-05-09T00:27:11.287Z,96111.09
2024-05-09T00:28:14.571Z,96101.59
2024-05-09T00:29:19.843Z,96110.09
2024-05-09T00:30:31.575Z,96112.09
2024-05-09T00:31:43.027Z,96107.94
2024-05-09T00:32:45.773Z,96107.00
2024-05-09T00:33:51.224Z,96111.63
2024-05-09T00:34:53.962Z,96102.78
2024-05-09T00:35:59.190Z,96115.44
2024-05-09T00:37:01.859Z,96105.19
2024-05-09T00:38:07.572Z,96105.19
2024-05-09T00:39:10.319Z,96104.00
2024-05-09T00:40:22.962Z,96104.19
2024-05-09T00:41:36.293Z,96111.91
2024-05-09T00:42:39.177Z,96106.56
2024-05-09T00:43:44.538Z,96109.53
2024-05-09T00:44:47.155Z,96111.75
2024-05-09T00:45:53.716Z,96105.66
2024-05-09T00:46:59.218Z,96108.78
2024-05-09T00:48:09.425Z,96108.06
2024-05-09T00:49:13.788Z,96106.66
2024-05-09T00:50:25.899Z,96107.31
2024-05-09T00:51:36.769Z,96102.88
2024-05-09T00:52:42.874Z,96099.50
2024-05-09T00:53:46.449Z,96110.19
2024-05-09T00:54:51.712Z,96106.31
2024-05-09T00:55:57.645Z,96102.72
2024-05-09T00:57:03.556Z,96108.22
2024-05-09T00:58:08.038Z,96100.97
2024-05-09T00:59:13.303Z,96096.84
2024-05-09T01:00:26.083Z,96102.63
2024-05-09T01:01:36.671Z,96099.50
2024-05-09T01:02:42.030Z,96100.72
2024-05-09T01:03:49.571Z,96102.44
2024-05-09T01:04:53.633Z,96094.97
2024-05-09T01:05:58.957Z,96105.56
2024-05-09T01:07:01.653Z,96101.41
2024-05-09T01:08:07.496Z,96094.88
2024-05-09T01:09:10.393Z,96098.19
2024-05-09T01:10:17.448Z,96095.53
2024-05-09T01:11:36.798Z,96097.69
2024-05-09T01:12:39.478Z,96100.63
2024-05-09T01:13:44.972Z,96092.59
2024-05-09T01:14:47.603Z,96093.41
2024-05-09T01:15:54.028Z,96092.94
2024-05-09T01:16:56.827Z,96092.69
2024-05-09T01:18:07.640Z,96093.59
2024-05-09T01:19:20.614Z,96092.03
2024-05-09T01:20:36.875Z,96090.38
2024-05-09T01:21:44.781Z,96093.50
2024-05-09T01:22:50.908Z,96090.28
2024-05-09T01:23:56.184Z,96095.53
2024-05-09T01:25:01.416Z,96091.69
2024-05-09T01:26:04.254Z,96092.84
2024-05-09T01:27:09.497Z,96098.50
2024-05-09T01:28:12.436Z,96099.22
2024-05-09T01:29:17.952Z,96093.41
2024-05-09T01:30:24.562Z,96099.03
2024-05-09T01:31:36.596Z,96101.97
2024-05-09T01:32:39.321Z,96099.66
2024-05-09T01:33:45.167Z,96103.44
2024-05-09T01:34:47.927Z,96106.13
2024-05-09T01:35:53.272Z,96102.72
2024-05-09T01:36:56.282Z,96105.41
2024-05-09T01:38:01.588Z,96096.38
2024-05-09T01:39:06.811Z,96108.78
2024-05-09T01:40:18.414Z,96100.31
2024-05-09T01:41:25.071Z,96098.56
2024-05-09T01:42:30.348Z,96097.63
2024-05-09T01:43:33.064Z,96100.31
2024-05-09T01:44:38.388Z,96099.66
2024-05-09T01:45:41.589Z,96098.44
2024-05-09T01:46:46.980Z,96094.31
2024-05-09T01:47:49.781Z,96091.44
2024-05-09T01:48:55.208Z,96094.97
2024-05-09T01:49:57.875Z,96093.97
2024-05-09T01:51:03.207Z,96094.41
2024-05-09T01:52:05.893Z,96099.03
2024-05-09T01:53:11.713Z,96103.63
2024-05-09T01:54:17.251Z,96096.09
2024-05-09T01:55:22.653Z,96095.88
2024-05-09T01:56:27.396Z,96084.94
2024-05-09T01:57:33.365Z,96081.53
2024-05-09T01:58:36.902Z,96089.06
2024-05-09T01:59:42.106Z,96095.16
2024-05-09T02:00:45.017Z,96086.69
2024-05-09T02:01:56.732Z,96090.84
2024-05-09T02:03:00.666Z,96089.88
2024-05-09T02:04:06.387Z,96084.28
2024-05-09T02:05:09.543Z,96095.44
2024-05-09T02:06:15.023Z,96095.72
2024-05-09T02:07:18.075Z,96097.38
2024-05-09T02:08:24.546Z,96099.31
2024-05-09T02:09:29.865Z,96099.75
2024-05-09T02:10:35.108Z,96097.28
2024-05-09T02:11:41.782Z,96100.22
2024-05-09T02:12:47.119Z,96093.22
2024-05-09T02:13:49.746Z,96098.09
2024-05-09T02:14:55.065Z,96102.97
2024-05-09T02:15:57.708Z,96093.31
2024-05-09T02:17:02.966Z,96095.22
2024-05-09T02:18:06.360Z,96100.41
2024-05-09T02:19:11.900Z,96093.56
2024-05-09T02:20:22.561Z,96097.53
2024-05-09T02:21:34.251Z,96095.06
2024-05-09T02:22:36.844Z,96102.31
2024-05-09T02:23:42.081Z,96093.56
2024-05-09T02:24:47.357Z,96098.19
2024-05-09T02:25:52.589Z,96098.19
2024-05-09T02:26:55.206Z,96101.31
2024-05-09T02:28:00.634Z,96096.72
2024-05-09T02:29:03.361Z,96095.72
2024-05-09T02:30:18.570Z,96096.38
2024-05-09T02:31:28.510Z,96098.03
2024-05-09T02:32:33.859Z,96098.50
2024-05-09T02:33:36.764Z,96090.03
2024-05-09T02:34:39.507Z,96098.03
2024-05-09T02:35:45.597Z,96097.75
2024-05-09T02:36:48.245Z,96099.22
2024-05-09T02:37:50.880Z,96095.53
2024-05-09T02:38:56.070Z,96090.03
2024-05-09T02:40:01.323Z,96090.75
2024-05-09T02:41:04.257Z,96091.19
2024-05-09T02:42:09.442Z,96094.41
2024-05-09T02:43:13.062Z,96092.22
2024-05-09T02:44:15.653Z,96097.28
2024-05-09T02:45:18.322Z,96087.81
2024-05-09T02:46:20.997Z,96094.63
2024-05-09T02:47:26.624Z,96090.94
2024-05-09T02:48:29.541Z,96095.81
2024-05-09T02:49:32.215Z,96087.81
2024-05-09T02:50:39.700Z,96090.47
2024-05-09T02:51:42.894Z,96096.09
2024-05-09T02:52:45.570Z,96089.00
2024-05-09T02:53:48.184Z,96093.34
2024-05-09T02:54:51.058Z,96090.94
2024-05-09T02:55:59.069Z,96084.31
2024-05-09T02:57:01.720Z,96095.47
2024-05-09T02:58:04.739Z,96094.00
2024-05-09T02:59:10.262Z,96093.50
2024-05-09T03:00:19.014Z,96094.06
2024-05-09T03:01:28.599Z,96087.00
2024-05-09T03:02:34.202Z,96088.00
2024-05-09T03:03:37.237Z,96093.16
2024-05-09T03:04:40.124Z,96090.84
2024-05-09T03:05:43.142Z,96089.38
2024-05-09T03:06:48.563Z,96094.72
2024-05-09T03:07:51.215Z,96090.69
2024-05-09T03:08:53.840Z,96092.06
2024-05-09T03:09:56.422Z,96090.13
2024-05-09T03:11:04.355Z,96092.13
2024-05-09T03:12:08.445Z,96090.38
2024-05-09T03:13:14.156Z,96096.19
2024-05-09T03:14:18.173Z,96082.84
2024-05-09T03:15:24.499Z,96089.84
2024-05-09T03:16:27.271Z,96090.84
2024-05-09T03:17:30.037Z,96084.50
2024-05-09T03:18:35.500Z,96074.75
2024-05-09T03:19:38.375Z,96083.97
2024-05-09T03:20:41.180Z,96092.50
2024-05-09T03:21:43.798Z,96091.03
2024-05-09T03:22:49.036Z,96098.59
2024-05-09T03:23:51.680Z,96097.38
2024-05-09T03:24:54.489Z,96092.78
2024-05-09T03:25:57.217Z,96096.19
2024-05-09T03:27:05.165Z,96101.16
2024-05-09T03:28:07.891Z,96096.94
2024-05-09T03:29:10.667Z,96091.59
2024-05-09T03:30:25.898Z,96090.59
2024-05-09T03:31:38.332Z,96093.44
2024-05-09T03:32:41.175Z,96098.78
2024-05-09T03:33:44.025Z,96097.31
2024-05-09T03:34:46.764Z,96088.09
2024-05-09T03:35:51.980Z,96093.91
2024-05-09T03:36:57.206Z,96090.78
2024-05-09T03:37:59.841Z,96093.91
2024-05-09T03:39:05.186Z,96094.47
2024-05-09T03:40:14.453Z,96084.69
2024-05-09T03:41:23.374Z,96089.31
2024-05-09T03:42:28.864Z,96086.44
2024-05-09T03:43:34.165Z,96090.31
2024-05-09T03:44:36.794Z,96088.56
2024-05-09T03:45:39.457Z,96086.91
2024-05-09T03:46:44.824Z,96083.78
2024-05-09T03:47:47.572Z,96081.31
2024-05-09T03:48:50.271Z,96081.75
2024-05-09T03:49:52.901Z,96087.81
2024-05-09T03:50:58.175Z,96084.69
2024-05-09T03:52:05.043Z,96082.03
2024-05-09T03:53:11.632Z,96085.25
2024-05-09T03:54:16.954Z,96070.69
2024-05-09T03:55:19.552Z,96078.16
2024-05-09T03:56:22.267Z,96079.16
2024-05-09T03:57:24.882Z,96080.81
2024-05-09T03:58:33.075Z,96075.31
2024-05-09T03:59:36.895Z,96079.91
2024-05-09T04:00:40.385Z,96077.22
2024-05-09T04:01:43.211Z,96078.25
2024-05-09T04:02:50.743Z,96083.56
2024-05-09T04:03:53.518Z,96086.50
2024-05-09T04:04:56.212Z,96088.38
2024-05-09T04:05:59.135Z,96083.50
2024-05-09T04:07:04.821Z,96083.50
2024-05-09T04:08:07.937Z,96093.00
2024-05-09T04:09:10.556Z,96087.00
2024-05-09T04:10:21.133Z,96089.47
2024-05-09T04:11:33.358Z,96089.72
2024-05-09T04:12:36.365Z,96092.22
2024-05-09T04:13:41.613Z,96103.44
2024-05-09T04:14:44.172Z,96096.84
2024-05-09T04:15:49.364Z,96097.47
2024-05-09T04:16:52.301Z,96100.06
2024-05-09T04:17:55.151Z,96090.59
2024-05-09T04:19:00.631Z,96098.84
2024-05-09T04:20:03.403Z,96097.47
2024-05-09T04:21:07.048Z,96096.66
2024-05-09T04:22:10.087Z,96101.53
2024-05-09T04:23:16.530Z,96093.06
2024-05-09T04:24:19.586Z,96090.13
2024-05-09T04:25:22.202Z,96094.72
2024-05-09T04:26:24.826Z,96103.53
2024-05-09T04:27:30.045Z,96102.44
2024-05-09T04:28:32.709Z,96104.84
2024-05-09T04:29:38.053Z,96108.53
2024-05-09T04:30:41.812Z,96106.41
2024-05-09T04:31:47.801Z,96107.88
2024-05-09T04:32:51.057Z,96111.09
2024-05-09T04:33:53.892Z,96103.53
2024-05-09T04:34:56.670Z,96113.28
2024-05-09T04:35:59.274Z,96114.28
2024-05-09T04:37:04.623Z,96114.47
2024-05-09T04:38:07.265Z,96111.25
2024-05-09T04:39:09.878Z,96117.44
2024-05-09T04:40:23.988Z,96117.50
2024-05-09T04:41:33.660Z,96116.84
2024-05-09T04:42:36.381Z,96117.59
2024-05-09T04:43:41.689Z,96117.19
2024-05-09T04:44:47.018Z,96110.13
2024-05-09T04:45:51.160Z,96112.78
2024-05-09T04:46:53.758Z,96120.22
2024-05-09T04:47:59.221Z,96113.59
2024-05-09T04:49:02.228Z,96118.81
2024-05-09T04:50:08.870Z,96116.03
2024-05-09T04:51:14.079Z,96112.16
2024-05-09T04:52:19.402Z,96116.38
2024-05-09T04:53:22.021Z,96122.53
2024-05-09T04:54:33.725Z,96120.19
2024-05-09T04:55:39.600Z,96117.13
2024-05-09T04:56:45.227Z,96119.72
2024-05-09T04:57:48.126Z,96120.81
2024-05-09T04:58:51.374Z,96121.63
2024-05-09T04:59:56.527Z,96124.06
2024-05-09T05:01:01.712Z,96121.47
2024-05-09T05:02:04.659Z,96119.97
2024-05-09T05:03:10.528Z,96123.84
2024-05-09T05:04:15.235Z,96127.28
2024-05-09T05:05:20.649Z,96124.88
2024-05-09T05:06:23.971Z,96125.22
2024-05-09T05:07:26.525Z,96122.34
2024-05-09T05:08:32.038Z,96120.66
2024-05-09T05:09:35.892Z,96127.03
2024-05-09T05:10:39.125Z,96124.56
2024-05-09T05:11:41.914Z,96131.00
2024-05-09T05:13:03.147Z,96125.19
2024-05-09T05:14:10.081Z,96126.38
2024-05-09T05:15:15.526Z,96124.91
2024-05-09T05:16:20.842Z,96132.66
2024-05-09T05:17:23.562Z,96129.91
2024-05-09T05:18:27.934Z,96127.81
2024-05-09T05:19:31.170Z,96125.78
2024-05-09T05:20:34.471Z,96123.69
2024-05-09T05:21:39.802Z,96133.72
2024-05-09T05:22:43.632Z,96126.34
2024-05-09T05:23:46.252Z,96139.72
2024-05-09T05:24:48.886Z,96126.84
2024-05-09T05:25:55.948Z,96126.84
2024-05-09T05:26:58.777Z,96130.84
2024-05-09T05:28:01.326Z,96128.25
2024-05-09T05:29:06.574Z,96135.41
2024-05-09T05:30:17.506Z,96131.47
2024-05-09T05:31:26.411Z,96130.84
2024-05-09T05:32:29.182Z,96136.50
2024-05-09T05:33:34.766Z,96133.28
2024-05-09T05:34:37.468Z,96130.28
2024-05-09T05:35:41.034Z,96135.72
2024-05-09T05:36:46.286Z,96129.09
2024-05-09T05:37:48.961Z,96129.44
2024-05-09T05:38:52.236Z,96131.63
2024-05-09T05:39:54.891Z,96132.91
2024-05-09T05:41:00.188Z,96132.00
2024-05-09T05:42:03.192Z,96135.00
2024-05-09T05:43:06.256Z,96135.38
2024-05-09T05:44:14.361Z,96130.91
2024-05-09T05:45:17.240Z,96139.25
2024-05-09T05:46:19.854Z,96138.41
2024-05-09T05:47:25.225Z,96135.66
2024-05-09T05:48:30.571Z,96130.63
2024-05-09T05:49:33.350Z,96134.28
2024-05-09T05:50:38.123Z,96136.91
2024-05-09T05:51:41.434Z,96134.09
2024-05-09T05:52:46.862Z,96134.25
2024-05-09T05:53:49.611Z,96136.41
2024-05-09T05:54:52.389Z,96138.22
2024-05-09T05:55:55.166Z,96142.72
2024-05-09T05:57:00.651Z,96145.94
2024-05-09T05:58:03.815Z,96143.00
2024-05-09T05:59:06.568Z,96145.97
2024-05-09T06:00:15.230Z,96147.22
2024-05-09T06:01:26.896Z,96146.84
2024-05-09T06:02:33.009Z,96146.03
2024-05-09T06:03:35.766Z,96141.88
2024-05-09T06:04:41.087Z,96146.84
2024-05-09T06:05:46.025Z,96140.06
2024-05-09T06:06:49.546Z,96147.06
2024-05-09T06:07:54.805Z,96147.41
2024-05-09T06:08:57.425Z,96145.94
2024-05-09T06:10:00.092Z,96146.19
2024-05-09T06:11:03.668Z,96155.63
2024-05-09T06:12:09.110Z,96155.50
2024-05-09T06:13:14.087Z,96156.56
2024-05-09T06:14:17.326Z,96146.94
2024-05-09T06:15:19.979Z,96147.84
2024-05-09T06:16:25.170Z,96144.38
2024-05-09T06:17:27.894Z,96143.56
2024-05-09T06:18:33.507Z,96149.78
2024-05-09T06:19:36.482Z,96145.88
2024-05-09T06:20:43.611Z,96146.38
2024-05-09T06:21:46.878Z,96147.97
2024-05-09T06:22:49.553Z,96154.81
2024-05-09T06:23:53.466Z,96144.13
2024-05-09T06:24:58.719Z,96143.59
2024-05-09T06:26:01.383Z,96143.38
2024-05-09T06:27:06.182Z,96146.53
2024-05-09T06:28:11.667Z,96145.88
2024-05-09T06:29:14.347Z,96140.22
2024-05-09T06:30:25.450Z,96143.63
2024-05-09T06:31:35.774Z,96147.78
2024-05-09T06:32:38.583Z,96137.53
2024-05-09T06:33:44.543Z,96141.91
2024-05-09T06:34:47.951Z,96138.78
2024-05-09T06:35:57.216Z,96136.31
2024-05-09T06:37:00.028Z,96132.66
2024-05-09T06:38:02.771Z,96136.13
2024-05-09T06:39:05.653Z,96138.56
2024-05-09T06:40:12.574Z,96138.63
2024-05-09T06:41:17.319Z,96132.78
2024-05-09T06:42:20.091Z,96136.19
2024-05-09T06:43:22.846Z,96135.69
2024-05-09T06:44:28.187Z,96125.63
2024-05-09T06:45:30.907Z,96127.84
2024-05-09T06:46:33.549Z,96116.34
2024-05-09T06:47:38.960Z,96128.34
2024-05-09T06:48:44.977Z,96131.53
2024-05-09T06:49:47.741Z,96133.19
2024-05-09T06:50:51.074Z,96130.09
2024-05-09T06:51:56.292Z,96129.81
2024-05-09T06:52:58.912Z,96126.16
2024-05-09T06:54:01.673Z,96126.91
2024-05-09T06:55:04.506Z,96129.81
2024-05-09T06:56:10.710Z,96125.44
2024-05-09T06:57:13.381Z,96131.53
2024-05-09T06:58:16.594Z,96129.56
2024-05-09T06:59:19.574Z,96129.84
2024-05-09T07:00:30.926Z,96131.28
2024-05-09T07:01:40.941Z,96136.94
2024-05-09T07:02:43.662Z,96133.94
2024-05-09T07:03:51.701Z,96139.50
2024-05-09T07:04:54.654Z,96133.09
2024-05-09T07:05:57.373Z,96139.13
2024-05-09T07:07:04.360Z,96128.56
2024-05-09T07:08:07.729Z,96136.00
2024-05-09T07:09:10.379Z,96138.34
2024-05-09T07:10:22.037Z,96142.50
2024-05-09T07:11:31.513Z,96133.53
2024-05-09T07:12:34.580Z,96136.38
2024-05-09T07:13:40.093Z,96138.44
2024-05-09T07:14:42.802Z,96138.88
2024-05-09T07:15:45.536Z,96137.66
2024-05-09T07:16:48.706Z,96140.09
2024-05-09T07:17:54.133Z,96143.25
2024-05-09T07:18:59.659Z,96142.50
2024-05-09T07:20:02.528Z,96140.75
2024-05-09T07:21:08.927Z,96142.84
2024-05-09T07:22:11.592Z,96139.66
2024-05-09T07:23:14.759Z,96146.59
2024-05-09T07:24:20.430Z,96142.38
2024-05-09T07:25:23.002Z,96141.09
2024-05-09T07:26:25.731Z,96139.41
2024-05-09T07:27:28.378Z,96141.59
2024-05-09T07:28:33.650Z,96138.84
2024-05-09T07:29:38.450Z,96147.22
2024-05-09T07:30:41.526Z,96141.63
2024-05-09T07:31:46.749Z,96141.13
2024-05-09T07:32:49.634Z,96141.28
2024-05-09T07:33:52.600Z,96137.19
2024-05-09T07:34:57.909Z,96139.25
2024-05-09T07:36:03.200Z,96141.25
2024-05-09T07:37:11.080Z,96136.50
2024-05-09T07:38:14.053Z,96138.59
2024-05-09T07:39:16.729Z,96130.81
2024-05-09T07:40:31.557Z,96139.03
2024-05-09T07:41:38.219Z,96139.78
2024-05-09T07:42:40.911Z,96136.63
2024-05-09T07:43:46.622Z,96138.03
2024-05-09T07:44:49.223Z,96140.34
2024-05-09T07:45:54.464Z,96141.41
2024-05-09T07:50:55.720Z,96142.63
2024-05-09T07:53:16.931Z,96136.38
2024-05-09T07:53:37.207Z,96142.75
2024-05-09T07:54:35.297Z,96146.13
2024-05-09T07:55:38.181Z,96135.66
2024-05-09T07:56:41.044Z,96146.72
2024-05-09T07:57:46.558Z,96141.28
2024-05-09T07:58:50.794Z,96146.19
2024-05-09T07:59:53.561Z,96150.75
2024-05-09T08:00:56.433Z,96148.31
2024-05-09T08:02:01.893Z,96148.94
2024-05-09T08:03:05.116Z,96137.00
2024-05-09T08:04:07.913Z,96144.03
2024-05-09T08:05:13.285Z,96151.13
2024-05-09T08:06:18.774Z,96148.44
2024-05-09T08:07:22.089Z,96146.81
2024-05-09T08:08:27.668Z,96148.88
2024-05-09T08:09:30.269Z,96152.75
2024-05-09T08:10:35.144Z,96146.94
2024-05-09T08:11:37.895Z,96153.81
2024-05-09T08:12:43.253Z,96142.75
2024-05-09T08:13:45.859Z,96137.69
2024-05-09T08:14:48.427Z,96149.13
2024-05-09T08:15:54.076Z,96139.78
2024-05-09T08:16:56.943Z,96143.94
2024-05-09T08:18:00.171Z,96140.88
2024-05-09T08:19:05.870Z,96136.44
2024-05-09T08:20:09.848Z,96141.72
2024-05-09T08:21:13.928Z,96137.53
2024-05-09T08:22:21.783Z,96137.25
2024-05-09T08:23:24.431Z,96141.34
2024-05-09T08:24:27.479Z,96139.81
2024-05-09T08:25:30.050Z,96130.56
2024-05-09T08:26:35.322Z,96138.22
2024-05-09T08:27:38.020Z,96142.66
2024-05-09T08:28:40.655Z,96141.06
2024-05-09T08:29:43.662Z,96144.53
2024-05-09T08:30:49.107Z,96143.16
2024-05-09T08:31:56.200Z,96139.09
2024-05-09T08:32:59.104Z,96142.34
2024-05-09T08:34:02.012Z,96140.31
2024-05-09T08:35:07.949Z,96144.50
2024-05-09T08:36:10.491Z,96141.94
2024-05-09T08:37:19.699Z,96137.69
2024-05-09T08:38:30.383Z,96135.47
2024-05-09T08:39:33.162Z,96135.47
2024-05-09T08:40:37.927Z,96136.31
2024-05-09T08:41:43.371Z,96128.53
2024-05-09T08:42:53.278Z,96133.34
2024-05-09T08:43:55.918Z,96136.13
2024-05-09T08:44:58.548Z,96129.13
2024-05-09T08:46:02.767Z,96137.69
2024-05-09T08:47:09.911Z,96131.81
2024-05-09T08:48:14.969Z,96132.41
2024-05-09T08:49:18.996Z,96138.00
2024-05-09T08:50:32.327Z,96129.91
2024-05-09T08:51:40.987Z,96128.53
2024-05-09T08:52:43.776Z,96127.28
2024-05-09T08:53:51.685Z,96124.22
2024-05-09T08:54:54.873Z,96127.00
2024-05-09T08:56:01.550Z,96120.69
2024-05-09T08:57:05.698Z,96125.97
2024-05-09T08:58:13.852Z,96115.38
2024-05-09T08:59:21.419Z,96122.44
2024-05-09T09:00:33.761Z,96124.41
2024-05-09T09:01:44.512Z,96123.84
2024-05-09T09:02:50.043Z,96119.34
2024-05-09T09:03:53.672Z,96117.78
2024-05-09T09:05:01.009Z,96117.19
2024-05-09T09:06:10.123Z,96112.03
2024-05-09T09:07:13.470Z,96117.66
2024-05-09T09:08:17.180Z,96116.78
2024-05-09T09:09:22.479Z,96116.84
2024-05-09T09:10:32.071Z,96115.81
2024-05-09T09:11:35.854Z,96121.50
2024-05-09T09:12:38.653Z,96120.44
2024-05-09T09:13:41.322Z,96118.28
2024-05-09T09:14:46.708Z,96120.34
2024-05-09T09:15:50.312Z,96120.09
2024-05-09T09:16:54.200Z,96119.38
2024-05-09T09:17:57.832Z,96123.06
2024-05-09T09:19:03.537Z,96117.59
2024-05-09T09:20:13.967Z,96124.47
2024-05-09T09:21:19.029Z,96122.75
2024-05-09T09:22:24.363Z,96122.75
2024-05-09T09:23:30.224Z,96117.03
2024-05-09T09:24:35.783Z,96119.78
2024-05-09T09:25:40.066Z,96124.47
2024-05-09T09:26:48.058Z,96123.53
2024-05-09T09:27:50.833Z,96121.50
2024-05-09T09:28:53.521Z,96113.50
2024-05-09T09:29:59.929Z,96121.97
2024-05-09T09:31:03.211Z,96117.16
2024-05-09T09:32:08.581Z,96123.88
2024-05-09T09:33:12.193Z,96118.66
2024-05-09T09:34:17.794Z,96121.63
2024-05-09T09:35:20.595Z,96116.28
2024-05-09T09:36:23.159Z,96119.09
2024-05-09T09:37:29.853Z,96125.00
2024-05-09T09:38:32.592Z,96126.38
2024-05-09T09:39:48.961Z,96122.25
2024-05-09T09:40:52.230Z,96112.47
2024-05-09T09:41:56.862Z,96117.00
2024-05-09T09:43:04.707Z,96123.38
2024-05-09T09:44:09.648Z,96120.41
2024-05-09T09:45:13.994Z,96115.81
2024-05-09T09:46:18.787Z,96108.94
2024-05-09T09:47:24.902Z,96111.38
2024-05-09T09:48:28.497Z,96111.97
2024-05-09T09:49:33.767Z,96116.72
2024-05-09T09:50:36.790Z,96115.81
2024-05-09T09:51:43.742Z,96115.78
2024-05-09T09:52:47.149Z,96121.63
2024-05-09T09:53:53.110Z,96122.50
2024-05-09T09:54:59.910Z,96116.91
2024-05-09T09:56:06.383Z,96123.44
2024-05-09T09:57:09.170Z,96127.13
2024-05-09T09:58:14.387Z,96132.22
2024-05-09T09:59:20.350Z,96126.19
2024-05-09T10:00:29.960Z,96133.81
2024-05-09T10:01:36.445Z,96128.31
2024-05-09T10:02:40.357Z,96128.66
2024-05-09T10:03:46.061Z,96131.19
2024-05-09T10:04:49.092Z,96129.25
2024-05-09T10:05:52.612Z,96131.84
2024-05-09T10:07:08.365Z,96123.06
2024-05-09T10:08:14.858Z,96132.22
2024-05-09T10:09:18.314Z,96127.00
2024-05-09T10:10:32.032Z,96127.94
2024-05-09T10:11:42.075Z,96129.44
2024-05-09T10:13:01.693Z,96125.25
2024-05-09T10:14:04.411Z,96124.94
2024-05-09T10:15:09.147Z,96123.19
2024-05-09T10:16:15.038Z,96122.25
2024-05-09T10:17:18.158Z,96121.34
2024-05-09T10:18:27.121Z,96118.06
2024-05-09T10:19:35.357Z,96119.59
2024-05-09T10:20:42.406Z,96117.41
2024-05-09T10:21:47.298Z,96113.94
2024-05-09T10:22:53.087Z,96120.19
2024-05-09T10:23:59.855Z,96123.16
2024-05-09T10:25:06.965Z,96120.00
2024-05-09T10:26:12.218Z,96108.06
2024-05-09T10:27:17.647Z,96118.44
2024-05-09T10:28:21.023Z,96112.34
2024-05-09T10:29:26.348Z,96114.94
2024-05-09T10:30:36.085Z,96116.84
2024-05-09T10:31:42.441Z,96112.16
2024-05-09T10:32:45.612Z,96116.13
2024-05-09T10:33:50.206Z,96109.38
2024-05-09T10:35:03.375Z,96115.81
2024-05-09T10:36:12.070Z,96120.09
2024-05-09T10:37:15.184Z,96106.56
2024-05-09T10:38:18.710Z,96116.00
2024-05-09T10:39:24.636Z,96116.63
2024-05-09T10:40:31.351Z,96114.47
2024-05-09T10:41:38.581Z,96120.34
2024-05-09T10:42:44.468Z,96111.75
2024-05-09T10:43:47.732Z,96119.22
2024-05-09T10:44:50.407Z,96113.19
2024-05-09T10:45:53.109Z,96105.69
2024-05-09T10:46:58.599Z,96105.88
2024-05-09T10:48:01.488Z,96105.78
2024-05-09T10:49:07.243Z,96113.94
2024-05-09T10:50:18.528Z,96108.66
2024-05-09T10:51:31.061Z,96110.06
2024-05-09T10:52:35.320Z,96113.28
2024-05-09T10:53:42.370Z,96110.03
2024-05-09T10:54:49.010Z,96106.19
2024-05-09T10:56:00.506Z,96116.56
2024-05-09T10:57:06.500Z,96110.31
2024-05-09T10:58:18.484Z,96102.41
2024-05-09T10:59:23.706Z,96104.59
2024-05-09T11:00:35.740Z,96104.69
2024-05-09T11:01:40.268Z,96099.03
2024-05-09T11:02:44.180Z,96103.22
2024-05-09T11:03:50.562Z,96113.03
2024-05-09T11:04:53.618Z,96109.81
2024-05-09T11:05:56.726Z,96104.03
2024-05-09T11:07:02.827Z,96103.78
2024-05-09T11:08:09.674Z,96108.41
2024-05-09T11:09:12.596Z,96107.25
2024-05-09T11:10:21.005Z,96099.84
2024-05-09T11:11:32.895Z,96102.34
2024-05-09T11:12:38.625Z,96096.97
2024-05-09T11:13:41.690Z,96104.13
2024-05-09T11:14:56.085Z,96105.22
2024-05-09T11:16:00.190Z,96105.66
2024-05-09T11:17:06.123Z,96105.47
2024-05-09T11:18:23.616Z,96104.78
2024-05-09T11:19:33.597Z,96101.69
2024-05-09T11:20:36.778Z,96107.84
2024-05-09T11:21:40.006Z,96102.94
2024-05-09T11:22:46.517Z,96101.91
2024-05-09T11:23:49.698Z,96097.66
2024-05-09T11:24:52.624Z,96102.50
2024-05-09T11:25:56.967Z,96104.31
2024-05-09T11:27:02.938Z,96103.00
2024-05-09T11:28:08.452Z,96095.53
2024-05-09T11:29:11.110Z,96104.25
2024-05-09T11:30:26.741Z,96093.50
2024-05-09T11:31:47.791Z,96099.50
2024-05-09T11:32:50.709Z,96100.19
2024-05-09T11:33:55.078Z,96098.91
2024-05-09T11:34:57.801Z,96105.53
2024-05-09T11:36:03.072Z,96097.47
2024-05-09T11:37:05.915Z,96096.41
2024-05-09T11:38:08.614Z,96094.94
2024-05-09T11:39:11.758Z,96091.53
2024-05-09T11:40:24.845Z,96093.00
2024-05-09T11:41:31.456Z,96087.53
2024-05-09T11:42:34.111Z,96091.09
2024-05-09T11:43:39.325Z,96086.97
2024-05-09T11:44:44.516Z,96090.78
2024-05-09T11:45:47.225Z,96089.16
2024-05-09T11:46:49.930Z,96096.38
2024-05-09T11:47:53.268Z,96086.97
2024-05-09T11:48:58.749Z,96089.69
2024-05-09T11:50:01.679Z,96093.91
2024-05-09T11:51:04.778Z,96088.59
2024-05-09T11:52:10.367Z,96098.63
2024-05-09T11:53:13.226Z,96088.75
2024-05-09T11:54:16.532Z,96085.84
2024-05-09T11:55:26.728Z,96093.19
2024-05-09T11:56:30.465Z,96089.91
2024-05-09T11:57:33.312Z,96086.81
2024-05-09T11:58:39.423Z,96088.75
2024-05-09T11:59:47.270Z,96087.72
2024-05-09T12:00:50.149Z,96091.38
2024-05-09T12:01:53.028Z,96078.97
2024-05-09T12:02:58.881Z,96083.94
2024-05-09T12:04:04.344Z,96081.00
2024-05-09T12:05:07.453Z,96078.03
2024-05-09T12:06:10.229Z,96076.19
2024-05-09T12:07:13.159Z,96077.03
2024-05-09T12:08:18.467Z,96076.75
2024-05-09T12:09:21.126Z,96074.03
2024-05-09T12:11:28.634Z,96079.34
2024-05-09T12:12:36.720Z,96076.38
2024-05-09T12:13:39.879Z,96075.44
2024-05-09T12:14:45.164Z,96071.81
2024-05-09T12:15:47.826Z,96069.69
2024-05-09T12:16:53.214Z,96060.56
2024-05-09T12:17:58.387Z,96060.97
2024-05-09T12:19:03.097Z,96070.13
2024-05-09T12:20:11.346Z,96059.56
2024-05-09T12:21:22.434Z,96058.91
2024-05-09T12:22:25.138Z,96051.41
2024-05-09T12:23:27.934Z,96061.88
2024-05-09T12:24:30.883Z,96051.06
2024-05-09T12:25:36.204Z,96057.25
2024-05-09T12:26:38.833Z,96051.91
2024-05-09T12:27:41.521Z,96052.69
2024-05-09T12:28:44.236Z,96049.75
2024-05-09T12:29:52.161Z,96053.38
2024-05-09T12:30:54.830Z,96052.09
2024-05-09T12:31:58.168Z,96054.31
2024-05-09T12:33:01.826Z,96051.28
2024-05-09T12:34:07.863Z,96060.38
2024-05-09T12:35:10.563Z,96051.22
2024-05-09T12:36:13.391Z,96064.50
2024-05-09T12:37:16.242Z,96053.44
2024-05-09T12:38:21.912Z,96054.81
2024-05-09T12:39:24.558Z,96052.13
2024-05-09T12:40:35.404Z,96053.81
2024-05-09T12:41:43.337Z,96055.25
2024-05-09T12:42:45.954Z,96052.47
2024-05-09T12:43:49.661Z,96051.56
2024-05-09T12:44:57.508Z,96049.22
2024-05-09T12:46:00.217Z,96046.59
2024-05-09T12:47:03.028Z,96051.28
2024-05-09T12:48:08.499Z,96052.69
2024-05-09T12:49:16.385Z,96048.00
2024-05-09T12:50:29.157Z,96049.41